createdAt,value
2019-01-13T00:01:46.509Z,49.67
2019-01-13T00:04:15.943Z,50.70
2019-01-13T00:06:45.459Z,51.93
2019-01-13T00:09:14.943Z,43.87
2019-01-13T00:11:44.379Z,44.80
2019-01-13T00:14:13.809Z,41.90
2019-01-13T00:16:43.278Z,45.80
2019-01-13T00:19:12.714Z,46.00
2019-01-13T00:21:42.154Z,46.27
2019-01-13T00:24:11.621Z,50.30
2019-01-13T00:26:41.089Z,47.60
2019-01-13T00:29:10.559Z,46.40
2019-01-13T00:31:40.017Z,44.47
2019-01-13T00:34:09.537Z,41.50
2019-01-13T00:36:38.976Z,41.47
2019-01-13T00:39:09.113Z,43.67
2019-01-13T00:41:38.582Z,47.30
2019-01-13T00:44:09.132Z,41.23
2019-01-13T00:46:39.176Z,46.90
2019-01-13T00:49:08.864Z,42.70
2019-01-13T00:51:38.324Z,42.30
2019-01-13T00:54:07.808Z,44.20
2019-01-13T00:56:37.315Z,50.17
2019-01-13T00:59:06.777Z,56.53
2019-01-13T01:01:36.218Z,58.50
2019-01-13T01:04:06.116Z,49.13
2019-01-13T01:06:35.543Z,38.63
2019-01-13T01:09:08.607Z,40.13
2019-01-13T01:11:38.212Z,42.90
2019-01-13T01:14:07.682Z,43.77
2019-01-13T01:16:37.136Z,40.10
2019-01-13T01:19:06.622Z,48.83
2019-01-13T01:21:36.074Z,53.63
2019-01-13T01:24:05.690Z,43.60
2019-01-13T01:26:35.195Z,45.00
2019-01-13T01:29:04.755Z,52.27
2019-01-13T01:31:34.203Z,40.13
2019-01-13T01:34:03.749Z,43.03
2019-01-13T01:36:33.159Z,37.47
2019-01-13T01:39:02.600Z,36.27
2019-01-13T01:41:32.068Z,36.73
2019-01-13T01:44:01.521Z,35.90
2019-01-13T01:46:33.267Z,40.67
2019-01-13T01:49:02.727Z,40.47
2019-01-13T01:51:32.168Z,38.80
2019-01-13T01:54:01.606Z,31.70
2019-01-13T01:56:33.328Z,34.83
2019-01-13T01:59:02.802Z,36.17
2019-01-13T02:01:32.240Z,31.17
2019-01-13T02:04:01.680Z,32.90
2019-01-13T02:06:50.188Z,36.07
2019-01-13T02:09:19.672Z,33.13
2019-01-13T02:11:49.109Z,34.83
2019-01-13T02:14:18.590Z,38.70
2019-01-13T02:16:48.060Z,37.23
2019-01-13T02:19:17.543Z,32.87
2019-01-13T02:21:46.992Z,33.73
2019-01-13T02:24:16.561Z,31.83
2019-01-13T02:26:45.988Z,31.67
2019-01-13T02:29:15.448Z,36.47
2019-01-13T02:31:44.935Z,32.23
2019-01-13T02:34:14.365Z,31.67
2019-01-13T02:36:43.811Z,31.83
2019-01-13T02:39:13.288Z,35.33
2019-01-13T02:41:42.741Z,27.97
2019-01-13T02:44:12.169Z,31.07
2019-01-13T02:46:41.652Z,30.67
2019-01-13T02:49:11.140Z,34.03
2019-01-13T02:51:40.581Z,30.00
2019-01-13T02:54:10.069Z,30.47
2019-01-13T02:56:39.524Z,32.53
2019-01-13T02:59:08.953Z,32.13
2019-01-13T03:01:38.420Z,28.70
2019-01-13T03:04:07.855Z,32.90
2019-01-13T03:06:37.289Z,26.43
2019-01-13T03:09:09.370Z,28.33
2019-01-13T03:11:38.822Z,26.30
2019-01-13T03:14:08.245Z,28.50
2019-01-13T03:16:37.739Z,26.87
2019-01-13T03:19:07.181Z,24.07
2019-01-13T03:21:36.617Z,22.93
2019-01-13T03:24:06.086Z,24.23
2019-01-13T03:26:35.545Z,26.87
2019-01-13T03:29:05.474Z,23.67
2019-01-13T03:31:34.963Z,21.27
2019-01-13T03:34:04.501Z,22.40
2019-01-13T03:36:33.929Z,24.83
2019-01-13T03:39:03.511Z,20.93
2019-01-13T03:41:32.974Z,23.07
2019-01-13T03:44:02.502Z,21.07
2019-01-13T03:46:31.961Z,24.03
2019-01-13T03:49:01.379Z,19.77
2019-01-13T03:51:31.393Z,21.37
2019-01-13T03:54:01.148Z,23.10
2019-01-13T03:56:30.610Z,24.17
2019-01-13T03:59:00.356Z,21.90
2019-01-13T04:01:30.895Z,32.03
2019-01-13T04:04:00.343Z,26.20
2019-01-13T04:06:29.828Z,26.20
2019-01-13T04:08:59.591Z,32.67
2019-01-13T04:11:29.024Z,26.43
2019-01-13T04:13:58.494Z,31.83
2019-01-13T04:16:28.008Z,30.03
2019-01-13T04:18:57.461Z,32.83
2019-01-13T04:21:27.002Z,25.13
2019-01-13T04:23:56.438Z,35.03
2019-01-13T04:26:25.858Z,28.40
2019-01-13T04:28:55.356Z,25.77
2019-01-13T04:31:26.901Z,33.23
2019-01-13T04:33:55.915Z,37.17
2019-01-13T04:36:25.398Z,36.57
2019-01-13T04:38:54.828Z,30.13
2019-01-13T04:41:24.254Z,35.80
2019-01-13T04:43:53.724Z,35.07
2019-01-13T04:46:23.168Z,33.10
2019-01-13T04:48:52.614Z,31.50
2019-01-13T04:51:22.090Z,32.67
2019-01-13T04:53:51.526Z,35.23
2019-01-13T04:56:20.966Z,33.67
2019-01-13T04:58:50.444Z,35.40
2019-01-13T05:01:19.878Z,31.80
2019-01-13T05:03:49.363Z,32.43
2019-01-13T05:06:18.882Z,30.63
2019-01-13T05:08:48.329Z,30.40
2019-01-13T05:11:17.757Z,28.37
2019-01-13T05:13:47.234Z,28.30
2019-01-13T05:16:16.673Z,28.27
2019-01-13T05:18:46.100Z,30.90
2019-01-13T05:21:15.578Z,34.17
2019-01-13T05:23:45.027Z,34.27
2019-01-13T05:26:14.450Z,31.57
2019-01-13T05:28:44.070Z,34.67
2019-01-13T05:31:13.514Z,35.93
2019-01-13T05:33:42.958Z,32.93
2019-01-13T05:36:12.449Z,30.57
2019-01-13T05:38:41.877Z,30.43
2019-01-13T05:41:11.321Z,31.90
2019-01-13T05:43:40.807Z,28.17
2019-01-13T05:46:10.227Z,29.00
2019-01-13T05:48:39.665Z,27.47
2019-01-13T05:51:09.143Z,33.20
2019-01-13T05:53:38.583Z,33.13
2019-01-13T05:56:08.031Z,35.37
2019-01-13T05:58:37.499Z,30.63
2019-01-13T06:01:06.951Z,33.23
2019-01-13T06:03:36.365Z,33.47
2019-01-13T06:06:05.870Z,32.47
2019-01-13T06:08:35.315Z,31.90
2019-01-13T06:11:04.795Z,32.33
2019-01-13T06:13:34.287Z,29.77
2019-01-13T06:16:03.732Z,29.03
2019-01-13T06:18:33.205Z,32.50
2019-01-13T06:21:02.699Z,33.10
2019-01-13T06:23:32.133Z,29.87
2019-01-13T06:26:02.867Z,30.90
2019-01-13T06:28:32.447Z,30.87
2019-01-13T06:31:01.898Z,30.43
2019-01-13T06:33:32.461Z,34.90
2019-01-13T06:36:01.927Z,35.50
2019-01-13T06:38:31.701Z,29.97
2019-01-13T06:41:01.173Z,31.63
2019-01-13T06:43:30.699Z,30.60
2019-01-13T06:46:01.671Z,33.47
2019-01-13T06:48:32.225Z,34.73
2019-01-13T06:51:01.738Z,33.57
2019-01-13T06:53:33.487Z,32.83
2019-01-13T06:56:02.943Z,35.03
2019-01-13T06:58:32.451Z,34.40
2019-01-13T07:01:01.897Z,35.87
2019-01-13T07:03:31.386Z,31.13
2019-01-13T07:06:00.885Z,33.20
2019-01-13T07:08:30.340Z,41.83
2019-01-13T07:10:59.872Z,33.57
2019-01-13T07:13:29.871Z,37.80
2019-01-13T07:15:59.356Z,39.70
2019-01-13T07:18:28.822Z,35.40
2019-01-13T07:20:58.320Z,37.23
2019-01-13T07:23:27.776Z,34.60
2019-01-13T07:25:57.246Z,33.63
2019-01-13T07:28:26.744Z,33.60
2019-01-13T07:30:56.218Z,33.67
2019-01-13T07:33:25.686Z,32.47
2019-01-13T07:35:55.227Z,31.47
2019-01-13T07:38:24.666Z,32.77
2019-01-13T07:40:54.144Z,31.30
2019-01-13T07:43:23.635Z,32.97
2019-01-13T07:45:53.091Z,34.87
2019-01-13T07:48:22.636Z,34.43
2019-01-13T07:50:52.152Z,31.57
2019-01-13T07:53:24.473Z,35.77
2019-01-13T07:55:53.912Z,31.70
2019-01-13T07:58:23.434Z,38.83
2019-01-13T08:00:52.884Z,35.07
2019-01-13T08:03:22.360Z,78.13
2019-01-13T08:05:51.906Z,51.03
2019-01-13T08:08:21.379Z,43.17
2019-01-13T08:10:50.856Z,40.43
2019-01-13T08:13:20.434Z,51.30
2019-01-13T08:15:49.828Z,62.60
2019-01-13T08:18:19.330Z,42.70
2019-01-13T08:20:48.854Z,39.13
2019-01-13T08:23:18.298Z,34.93
2019-01-13T08:25:47.745Z,30.17
2019-01-13T08:28:17.232Z,32.73
2019-01-13T08:30:46.709Z,32.80
2019-01-13T08:33:16.172Z,33.63
2019-01-13T08:35:45.720Z,43.67
2019-01-13T08:38:15.175Z,35.87
2019-01-13T08:40:44.649Z,32.50
2019-01-13T08:43:14.147Z,32.80
2019-01-13T08:45:50.058Z,33.40
2019-01-13T08:48:14.688Z,38.77
2019-01-13T08:50:44.221Z,39.57
2019-01-13T08:53:13.708Z,38.23
2019-01-13T08:55:43.164Z,34.43
2019-01-13T08:58:12.644Z,35.13
2019-01-13T09:00:42.135Z,30.87
2019-01-13T09:03:11.606Z,29.77
2019-01-13T09:05:41.103Z,33.73
2019-01-13T09:08:30.513Z,32.03
2019-01-13T09:11:01.241Z,37.37
2019-01-13T09:13:30.723Z,36.23
2019-01-13T09:16:00.288Z,31.43
2019-01-13T09:18:29.822Z,28.53
2019-01-13T09:21:01.305Z,37.47
2019-01-13T09:23:31.998Z,29.53
2019-01-13T09:26:04.037Z,25.53
2019-01-13T09:28:33.506Z,27.43
2019-01-13T09:31:02.982Z,28.57
2019-01-13T09:33:32.471Z,27.63
2019-01-13T09:36:01.932Z,26.67
2019-01-13T09:38:33.690Z,24.67
2019-01-13T09:41:03.289Z,26.13
2019-01-13T09:43:32.727Z,33.17
2019-01-13T09:46:02.183Z,25.43
2019-01-13T09:48:32.048Z,29.53
2019-01-13T09:51:01.520Z,29.27
2019-01-13T09:53:30.993Z,28.27
2019-01-13T09:56:00.819Z,27.67
2019-01-13T09:58:30.707Z,30.00
2019-01-13T10:01:00.491Z,27.30
2019-01-13T10:03:30.011Z,24.90
2019-01-13T10:06:01.793Z,26.53
2019-01-13T10:08:31.512Z,29.10
2019-01-13T10:11:01.017Z,28.63
2019-01-13T10:13:30.511Z,25.93
2019-01-13T10:15:59.944Z,29.97
2019-01-13T10:18:29.415Z,24.67
2019-01-13T10:20:58.840Z,26.80
2019-01-13T10:23:30.571Z,28.23
2019-01-13T10:26:00.057Z,30.80
2019-01-13T10:28:29.541Z,26.73
2019-01-13T10:31:03.169Z,28.63
2019-01-13T10:33:30.106Z,39.20
2019-01-13T10:35:59.526Z,35.60
2019-01-13T10:38:29.840Z,36.17
2019-01-13T10:40:59.392Z,38.57
2019-01-13T10:43:28.873Z,37.97
2019-01-13T10:45:58.328Z,34.27
2019-01-13T10:48:27.824Z,42.20
2019-01-13T10:50:57.291Z,45.50
2019-01-13T10:53:26.778Z,48.17
2019-01-13T10:55:56.288Z,46.50
2019-01-13T10:58:25.809Z,33.43
2019-01-13T11:00:55.534Z,34.03
2019-01-13T11:03:25.962Z,36.03
2019-01-13T11:06:26.380Z,44.53
2019-01-13T11:08:55.876Z,32.37
2019-01-13T11:11:25.470Z,32.43
2019-01-13T11:13:54.929Z,29.37
2019-01-13T11:16:24.384Z,41.93
2019-01-13T11:18:53.862Z,49.13
2019-01-13T11:21:23.348Z,38.53
2019-01-13T11:23:52.774Z,34.73
2019-01-13T11:26:22.243Z,34.97
2019-01-13T11:28:51.738Z,38.57
2019-01-13T11:31:21.194Z,33.27
2019-01-13T11:33:50.660Z,35.17
2019-01-13T11:36:20.361Z,36.40
2019-01-13T11:38:49.844Z,28.07
2019-01-13T11:41:19.319Z,31.53
2019-01-13T11:43:48.842Z,32.13
2019-01-13T11:46:18.352Z,31.63
2019-01-13T11:48:47.871Z,29.63
2019-01-13T11:51:17.354Z,29.73
2019-01-13T11:53:46.907Z,33.80
2019-01-13T11:56:16.332Z,26.00
2019-01-13T11:58:45.823Z,31.00
2019-01-13T12:01:15.309Z,25.37
2019-01-13T12:03:44.800Z,26.63
2019-01-13T12:06:14.322Z,29.33
2019-01-13T12:08:43.816Z,38.47
2019-01-13T12:11:14.302Z,35.70
2019-01-13T12:13:43.769Z,26.90
2019-01-13T12:16:13.242Z,26.70
2019-01-13T12:18:42.740Z,28.37
2019-01-13T12:21:12.192Z,28.93
2019-01-13T12:23:41.657Z,25.23
2019-01-13T12:26:11.142Z,28.03
2019-01-13T12:28:40.585Z,30.60
2019-01-13T12:31:10.056Z,30.90
2019-01-13T12:33:39.601Z,29.57
2019-01-13T12:36:09.067Z,26.60
2019-01-13T12:38:38.528Z,26.83
2019-01-13T12:41:08.128Z,28.77
2019-01-13T12:43:37.598Z,33.37
2019-01-13T12:46:07.118Z,30.67
2019-01-13T12:48:36.722Z,30.63
2019-01-13T12:51:06.285Z,35.43
2019-01-13T12:53:35.752Z,29.97
2019-01-13T12:56:05.622Z,29.83
2019-01-13T12:58:35.069Z,32.00
2019-01-13T13:01:04.505Z,29.77
2019-01-13T13:03:34.051Z,39.17
2019-01-13T13:06:03.524Z,28.20
2019-01-13T13:08:32.976Z,31.53
2019-01-13T13:11:02.679Z,35.57
2019-01-13T13:13:32.213Z,32.73
2019-01-13T13:16:01.663Z,28.40
2019-01-13T13:18:31.198Z,32.83
2019-01-13T13:21:00.683Z,30.17
2019-01-13T13:23:30.135Z,33.47
2019-01-13T13:26:00.009Z,33.27
2019-01-13T13:28:29.475Z,31.17
2019-01-13T13:30:58.913Z,33.00
2019-01-13T13:33:28.431Z,35.33
2019-01-13T13:35:57.869Z,28.40
2019-01-13T13:38:27.330Z,33.37
2019-01-13T13:40:56.831Z,35.73
2019-01-13T13:43:33.967Z,36.10
2019-01-13T13:46:04.493Z,34.77
2019-01-13T13:48:33.930Z,29.43
2019-01-13T13:51:03.396Z,33.70
2019-01-13T13:53:32.905Z,31.53
2019-01-13T13:56:02.367Z,31.27
2019-01-13T13:58:31.835Z,33.37
2019-01-13T14:01:01.310Z,31.27
2019-01-13T14:03:30.912Z,34.20
2019-01-13T14:06:00.302Z,33.40
2019-01-13T14:08:31.808Z,33.23
2019-01-13T14:11:01.240Z,31.67
2019-01-13T14:13:31.856Z,28.83
2019-01-13T14:16:01.347Z,29.67
2019-01-13T14:18:33.103Z,31.07
2019-01-13T14:21:02.528Z,28.50
2019-01-13T14:23:32.042Z,26.70
2019-01-13T14:26:01.811Z,31.80
2019-01-13T14:28:31.231Z,40.70
2019-01-13T14:31:02.755Z,34.27
2019-01-13T14:33:32.224Z,39.87
2019-01-13T14:36:01.686Z,40.50
2019-01-13T14:38:32.641Z,31.57
2019-01-13T14:41:03.169Z,34.10
2019-01-13T14:43:32.638Z,39.53
2019-01-13T14:46:02.130Z,41.80
2019-01-13T14:48:33.142Z,47.40
2019-01-13T14:51:02.566Z,46.53
2019-01-13T14:53:33.353Z,49.33
2019-01-13T14:56:02.810Z,43.77
2019-01-13T14:58:32.327Z,54.03
2019-01-13T15:01:03.905Z,53.07
2019-01-13T15:03:33.340Z,48.30
2019-01-13T15:06:02.821Z,52.30
2019-01-13T15:08:32.314Z,63.97
2019-01-13T15:11:02.193Z,71.73
2019-01-13T15:13:31.768Z,87.40
2019-01-13T15:16:01.234Z,67.83
2019-01-13T15:18:32.944Z,62.00
2019-01-13T15:21:02.394Z,47.80
2019-01-13T15:23:32.216Z,50.00
2019-01-13T15:26:01.734Z,42.10
2019-01-13T15:28:31.170Z,48.53
2019-01-13T15:31:00.942Z,49.70
2019-01-13T15:33:30.394Z,74.17
2019-01-13T15:36:00.237Z,35.63
2019-01-13T15:38:32.047Z,41.73
2019-01-13T15:41:01.543Z,44.23
2019-01-13T15:43:31.299Z,41.63
2019-01-13T15:46:02.732Z,42.00
2019-01-13T15:48:32.189Z,36.23
2019-01-13T15:51:02.904Z,39.03
2019-01-13T15:53:32.327Z,39.83
2019-01-13T15:56:04.248Z,39.93
2019-01-13T15:58:33.730Z,35.93
2019-01-13T16:01:03.186Z,40.87
2019-01-13T16:03:32.647Z,46.87
2019-01-13T16:06:02.117Z,38.73
2019-01-13T16:08:31.573Z,43.13
2019-01-13T16:11:01.017Z,40.90
2019-01-13T16:13:30.490Z,41.37
2019-01-13T16:16:00.269Z,55.73
2019-01-13T16:18:29.700Z,89.53
2019-01-13T16:20:59.171Z,36.53
2019-01-13T16:23:28.576Z,33.90
2019-01-13T16:25:58.034Z,34.23
2019-01-13T16:28:27.481Z,36.03
2019-01-13T16:30:56.913Z,35.67
2019-01-13T16:33:26.388Z,30.87
2019-01-13T16:35:55.853Z,33.47
2019-01-13T16:38:25.328Z,38.13
2019-01-13T16:40:54.803Z,58.37
2019-01-13T16:43:24.255Z,42.30
2019-01-13T16:45:53.698Z,36.23
2019-01-13T16:48:23.163Z,35.57
2019-01-13T16:50:52.618Z,35.20
2019-01-13T16:53:22.066Z,35.63
2019-01-13T16:55:51.560Z,39.43
2019-01-13T16:58:21.147Z,38.90
2019-01-13T17:00:50.592Z,31.57
2019-01-13T17:03:20.167Z,32.67
2019-01-13T17:05:49.606Z,32.90
2019-01-13T17:08:19.037Z,33.30
2019-01-13T17:10:48.518Z,37.57
2019-01-13T17:13:18.015Z,36.60
2019-01-13T17:15:47.495Z,37.47
2019-01-13T17:18:16.978Z,38.10
2019-01-13T17:20:46.393Z,35.57
2019-01-13T17:23:15.884Z,32.53
2019-01-13T17:25:45.339Z,36.30
2019-01-13T17:28:14.776Z,36.43
2019-01-13T17:30:44.286Z,33.30
2019-01-13T17:33:13.781Z,30.00
2019-01-13T17:35:43.253Z,35.73
2019-01-13T17:38:12.688Z,32.40
2019-01-13T17:40:42.206Z,30.07
2019-01-13T17:43:11.651Z,30.60
2019-01-13T17:45:41.138Z,28.33
2019-01-13T17:48:10.920Z,28.13
2019-01-13T17:50:40.361Z,23.87
2019-01-13T17:53:10.362Z,27.80
2019-01-13T17:55:39.859Z,31.97
2019-01-13T17:58:10.475Z,36.90
2019-01-13T18:01:03.902Z,45.67
2019-01-13T18:03:40.478Z,38.30
2019-01-13T18:06:10.079Z,27.17
2019-01-13T18:08:39.490Z,31.33
2019-01-13T18:11:08.940Z,30.47
2019-01-13T18:13:38.418Z,23.47
2019-01-13T18:16:07.921Z,29.33
2019-01-13T18:18:37.387Z,27.80
2019-01-13T18:21:06.900Z,35.13
2019-01-13T18:23:36.333Z,59.77
2019-01-13T18:26:05.776Z,54.50
2019-01-13T18:28:35.345Z,69.63
2019-01-13T18:31:04.804Z,45.87
2019-01-13T18:33:34.267Z,36.27
2019-01-13T18:36:04.192Z,36.87
2019-01-13T18:38:33.623Z,38.53
2019-01-13T18:41:03.083Z,34.33
2019-01-13T18:43:32.628Z,31.07
2019-01-13T18:46:02.480Z,31.47
2019-01-13T18:48:31.937Z,32.03
2019-01-13T18:51:01.434Z,21.47
2019-01-13T18:53:31.271Z,23.87
2019-01-13T18:56:01.822Z,25.30
2019-01-13T18:58:31.711Z,23.57
2019-01-13T19:01:01.153Z,27.30
2019-01-13T19:03:30.628Z,24.60
2019-01-13T19:06:02.147Z,23.93
2019-01-13T19:08:31.590Z,23.77
2019-01-13T19:11:11.961Z,26.37
2019-01-13T19:14:02.833Z,20.57
2019-01-13T19:16:38.667Z,24.90
2019-01-13T19:19:08.088Z,21.53
2019-01-13T19:21:37.530Z,23.03
2019-01-13T19:24:07.012Z,22.57
2019-01-13T19:26:36.423Z,22.37
2019-01-13T19:29:05.896Z,23.77
2019-01-13T19:31:35.408Z,25.50
2019-01-13T19:34:04.849Z,22.83
2019-01-13T19:36:34.286Z,25.97
2019-01-13T19:39:05.272Z,24.07
2019-01-13T19:41:34.705Z,27.57
2019-01-13T19:44:05.104Z,24.90
2019-01-13T19:46:36.046Z,26.57
2019-01-13T19:49:05.682Z,28.33
2019-01-13T19:51:35.127Z,25.97
2019-01-13T19:54:04.576Z,25.07
2019-01-13T19:56:34.082Z,24.67
2019-01-13T19:59:03.538Z,28.43
2019-01-13T20:01:33.009Z,26.47
2019-01-13T20:04:03.728Z,23.63
2019-01-13T20:06:33.317Z,25.07
2019-01-13T20:09:04.325Z,26.17
2019-01-13T20:11:33.822Z,27.17
2019-01-13T20:14:03.666Z,28.80
2019-01-13T20:16:33.125Z,30.90
2019-01-13T20:19:02.730Z,33.70
2019-01-13T20:21:32.177Z,25.13
2019-01-13T20:24:01.602Z,25.67
2019-01-13T20:26:31.151Z,25.70
2019-01-13T20:29:00.584Z,25.43
2019-01-13T20:31:32.039Z,22.80
2019-01-13T20:34:01.546Z,24.20
2019-01-13T20:36:31.297Z,25.07
2019-01-13T20:39:00.773Z,22.63
2019-01-13T20:41:30.229Z,24.97
2019-01-13T20:43:59.754Z,23.43
2019-01-13T20:46:29.240Z,23.00
2019-01-13T20:48:58.689Z,28.03
2019-01-13T20:51:28.200Z,22.73
2019-01-13T20:53:57.709Z,26.17
2019-01-13T20:56:27.166Z,25.17
2019-01-13T20:58:56.858Z,25.73
2019-01-13T21:01:26.292Z,24.40
2019-01-13T21:03:56.026Z,25.57
2019-01-13T21:06:25.526Z,25.10
2019-01-13T21:08:54.962Z,35.40
2019-01-13T21:11:24.421Z,39.23
2019-01-13T21:13:54.039Z,25.37
2019-01-13T21:16:23.567Z,24.43
2019-01-13T21:18:53.119Z,25.80
2019-01-13T21:21:22.744Z,26.13
2019-01-13T21:23:52.177Z,26.33
2019-01-13T21:26:21.635Z,23.97
2019-01-13T21:28:51.327Z,24.33
2019-01-13T21:31:20.752Z,32.90
2019-01-13T21:33:50.224Z,32.27
2019-01-13T21:36:19.740Z,27.37
2019-01-13T21:38:49.236Z,26.90
2019-01-13T21:41:18.705Z,27.90
2019-01-13T21:43:48.184Z,28.50
2019-01-13T21:46:17.629Z,30.00
2019-01-13T21:48:47.075Z,31.87
2019-01-13T21:51:16.567Z,28.63
2019-01-13T21:53:45.993Z,30.67
2019-01-13T21:56:15.436Z,24.23
2019-01-13T21:58:44.907Z,29.43
2019-01-13T22:01:14.341Z,30.53
2019-01-13T22:03:43.771Z,36.77
2019-01-13T22:06:13.293Z,39.17
2019-01-13T22:08:42.721Z,29.37
2019-01-13T22:11:12.161Z,27.33
2019-01-13T22:13:41.664Z,26.07
2019-01-13T22:16:11.115Z,27.00
2019-01-13T22:18:40.637Z,23.83
2019-01-13T22:21:10.123Z,29.37
2019-01-13T22:23:39.623Z,27.80
2019-01-13T22:26:09.087Z,32.70
2019-01-13T22:28:38.559Z,34.97
2019-01-13T22:31:08.005Z,27.20
2019-01-13T22:33:37.453Z,26.50
2019-01-13T22:36:06.965Z,29.67
2019-01-13T22:38:36.428Z,28.97
2019-01-13T22:41:05.925Z,26.47
2019-01-13T22:43:35.430Z,26.43
2019-01-13T22:46:04.900Z,28.27
2019-01-13T22:48:34.345Z,27.70
2019-01-13T22:51:03.854Z,28.60
2019-01-13T22:53:33.309Z,31.33
2019-01-13T22:56:02.768Z,27.90
2019-01-13T22:58:32.281Z,27.73
2019-01-13T23:01:22.619Z,26.03
2019-01-13T23:03:52.173Z,26.67
2019-01-13T23:06:21.624Z,23.27
2019-01-13T23:08:51.120Z,29.70
2019-01-13T23:11:20.621Z,28.83
2019-01-13T23:13:50.075Z,36.40
2019-01-13T23:16:19.533Z,39.67
2019-01-13T23:18:48.997Z,30.43
2019-01-13T23:21:18.494Z,29.03
2019-01-13T23:23:48.002Z,30.60
2019-01-13T23:26:17.463Z,29.50
2019-01-13T23:28:46.908Z,29.80
2019-01-13T23:31:16.425Z,32.00
2019-01-13T23:33:45.890Z,28.93
2019-01-13T23:36:15.339Z,33.70
2019-01-13T23:38:44.874Z,26.53
2019-01-13T23:41:14.312Z,24.17
2019-01-13T23:43:43.766Z,28.77
2019-01-13T23:46:13.274Z,27.67
2019-01-13T23:48:42.709Z,26.40
2019-01-13T23:51:12.203Z,22.60
2019-01-13T23:53:41.692Z,26.10
2019-01-13T23:56:11.132Z,29.20
2019-01-13T23:58:40.588Z,21.30
